Startpagina
METAR-TAF:

METAR-TAF

Vliegvelden :

Villacoublay, Frankrijk

breedte: 48-46N, lengte: 002-12E, hoogte: 177 m

Actueel weer

Dit bericht is 31 minuten geleden gemaakt, om 02:00 UTC
Wind 7 kt uit het oosten
Temperatuur 14°C
Vochtigheid 44%
Druk 1016 hPa
Zicht 10 km of meer
geen wolken onder 1500 m en geen cumulonimbus

METAR: LFPV 210200Z AUTO 10007KT CAVOK 14/02 Q1016

Tijdstip: 04:31 (02:31 UTC)

Verwachting

Dit bericht is 31 minuten geleden gemaakt, om 02:00 UTC
Verwachting geldig van 21 om 03 UTC tot 22 om 03 UTC
Wind 8 kt uit het oostzuidoosten
Zicht 10 km of meer
geen wolken onder 1500 m en geen cumulonimbus

TAF: LFPV 210200Z 2103/2203 11008KT CAVOK

Waarnemingen en weersverwachtingen van meer dan 4000 vliegvelden (METAR en TAF).

De beschikbare stations zijn de gele en rode punten op de kaart.

Ga met uw muis naar het station om de naam te zien.

Klik dan om waarnemingen en weersverwachtingen te zien.

kaart wijzigen: klik op de groene knoppen met een zwart kruis om in te zoomen, op de groene knop met een streepje om uit te zoomen of op de groene pijlen voor aangrenzende kaarten.


METAR-TAF: